Sun Peaks, Canada
Current Conditions -  °F | °C
As of 11:00 AM on Friday 21 Nov 2014 (Local Time) from CYKA Reporting Station
Overcast Overcast  
Wind Chill: 31°   Ceiling: 8100
Heat Index: 39°   Visibility: 40mi
Dew Point: 30°   Wind: 14mph
Humidity: 70%   Direction: 90°E
Pressure: 29.69"   Gusts: 26mph
Location:  50.88°N, 119.92°W
Report Text: CYKA 211900Z 09012G23KT 40SM FEW010 SCT047 OVC081CB 04/M01 A2969 RMK SF1SC3CB4 SLP067
Loading
Personal Weather Stations






























Interactive Weather Map New forecast layout! Learn more

10-Day Weather Forecast

Advertisements
Track Severe Weather on mobile